Lakeside Heights, Texas
Current Conditions -  °F | °C
As of 1:35 PM on Saturday 25 Oct 2014 (Local Time) from KDZB Reporting Station
Clear Clear  
Wind Chill: 85°   Ceiling: Unl
Heat Index: 85°   Visibility: 10mi
Dew Point: 57°   Wind: 3mph
Humidity: 38%   Direction: 220°SW
Pressure: 30.15"   Gusts: NA
Location:  30.6735°N, 98.4512°W
Report Text: KDZB 251835Z AUTO 22003KT 10SM CLR 29/14 A3015 RMK AO2 T02930138
Loading
Personal Weather Stations






























Interactive Weather Map
Tropical Storm Tracking
New forecast layout! Learn more

10-Day Weather Forecast

Advertisements
Track Severe Weather on mobile